Terminal Aerodrome Forecast
Issued by NWS

Home | Current Version | Previous Version | Text Only | Print | Product List | Glossary On
Versions: 1 2 3 4 5 6 7 8 9 10 11 12 13 14 15
372
FTUS45 KGGW 191913 AAA
TAFSDY
TAF AMD
KSDY 191913Z 1919/2018 12006KT 6SM BR SCT005 BKN120
     FM192300 VRB04KT 3SM BR SCT004 BKN070
     FM200200 00000KT 1/2SM FG SCT003 OVC015
     FM201600 25010KT 5SM BR FEW015 SCT040=

USA.gov is the U.S. government's official web portal to all federal, state and local government web resources and services.